Time;durP1;ratioP1;P1;durP2;ratioP2;P2;SDS_P1;SDS_P2;PMS_P1;PMS_P2;Temp;Humidity;BMP_temperature;BMP_pressure;BME280_temperature;BME280_humidity;BME280_pressure;Samples;Min_cycle;Max_cycle;Signal;HPM_P1;HPM_P2
2022/01/23 00:01:27;;;;;;;55.83;33.15;;;7.20;99.90;;;;;;7335934;19;112198;-77
2022/01/23 00:03:54;;;;;;;59.40;32.60;;;7.20;99.90;;;;;;7338712;19;114531;-77
2022/01/23 00:06:21;;;;;;;;;;;7.20;99.90;;;;;;7341530;19;110739;-78
2022/01/23 00:08:49;;;;;;;57.53;32.30;;;7.20;99.90;;;;;;7345794;19;112017;-77
2022/01/23 00:11:17;;;;;;;57.45;33.35;;;7.10;99.90;;;;;;7337751;19;112497;-78
2022/01/23 00:19:12;;;;;;;59.43;33.33;;;7.20;99.90;;;;;;7337182;19;112702;-77
2022/01/23 00:21:40;;;;;;;59.28;34.17;;;7.10;99.90;;;;;;7339314;19;110469;-78
2022/01/23 00:32:09;;;;;;;60.63;34.17;;;7.00;99.90;;;;;;7336661;19;112731;-78
2022/01/23 00:34:36;;;;;;;63.88;34.53;;;7.10;99.90;;;;;;7338231;19;111657;-78
2022/01/23 00:37:03;;;;;;;63.10;34.50;;;7.10;99.90;;;;;;7332763;19;112404;-78
2022/01/23 00:39:30;;;;;;;59.05;32.92;;;7.10;99.90;;;;;;7336965;19;112364;-78
2022/01/23 00:41:57;;;;;;;64.07;34.67;;;7.10;99.90;;;;;;7336702;19;112610;-78
2022/01/23 00:44:27;;;;;;;;;;;7.10;99.90;;;;;;7338099;19;111921;-78
2022/01/23 00:46:54;;;;;;;62.33;32.27;;;7.10;99.90;;;;;;7340596;19;113153;-78
2022/01/23 00:49:26;;;;;;;61.90;33.23;;;7.00;99.90;;;;;;7335748;19;112278;-78
2022/01/23 00:51:54;;;;;;;55.78;32.88;;;7.10;99.90;;;;;;7343381;19;113725;-78
2022/01/23 00:54:22;;;;;;;59.88;34.13;;;7.00;99.90;;;;;;7337262;19;111699;-77
2022/01/23 00:56:49;;;;;;;55.25;32.45;;;7.10;99.90;;;;;;7338996;19;112289;-78
2022/01/23 00:59:16;;;;;;;56.20;32.60;;;7.10;99.90;;;;;;7335162;19;112868;-78
2022/01/23 01:01:43;;;;;;;56.35;32.38;;;7.10;99.90;;;;;;7336097;19;112855;-78
2022/01/23 01:04:11;;;;;;;60.87;33.17;;;7.10;99.90;;;;;;7335420;19;112245;-78
2022/01/23 01:06:38;;;;;;;54.95;32.42;;;7.10;99.90;;;;;;7336742;19;112705;-77
2022/01/23 01:09:07;;;;;;;55.08;31.40;;;7.10;99.90;;;;;;7335434;19;111773;-77
2022/01/23 01:11:55;;;;;;;60.33;32.60;;;7.00;99.90;;;;;;7337888;19;111766;-78
2022/01/23 01:17:28;;;;;;;54.77;32.07;;;7.10;99.90;;;;;;7335569;19;111649;-78
2022/01/23 01:33:44;;;;;;;57.05;31.92;;;7.00;99.90;;;;;;7337107;19;112031;-78
2022/01/23 01:36:56;;;;;;;62.45;33.35;;;7.00;99.90;;;;;;7337310;19;113861;-78
2022/01/23 01:39:05;;;;;;;55.17;32.63;;;6.90;99.90;;;;;;7339248;19;111716;-78
2022/01/23 01:41:35;;;;;;;56.30;32.80;;;7.00;99.90;;;;;;7337073;19;112563;-78
2022/01/23 01:44:03;;;;;;;55.00;32.63;;;7.00;99.90;;;;;;7332631;19;112815;-78
2022/01/23 01:46:30;;;;;;;57.75;31.60;;;7.00;99.90;;;;;;7335350;19;112472;-78
2022/01/23 01:48:58;;;;;;;52.00;31.80;;;7.00;99.90;;;;;;7334457;19;112441;-78
2022/01/23 01:51:30;;;;;;;54.88;32.45;;;7.00;99.90;;;;;;7333951;19;112722;-79
2022/01/23 01:54:05;;;;;;;58.10;32.35;;;7.00;99.90;;;;;;7337267;19;112548;-78
2022/01/23 01:56:39;;;;;;;63.55;33.55;;;7.00;99.90;;;;;;7332723;19;113832;-78
2022/01/23 01:59:33;;;;;;;53.85;32.10;;;7.00;99.90;;;;;;7342792;19;112182;-78
2022/01/23 02:09:52;;;;;;;53.92;32.35;;;7.00;99.90;;;;;;7341537;19;114535;-78
2022/01/23 02:18:21;;;;;;;54.35;31.63;;;7.00;99.90;;;;;;7343408;19;112514;-78
2022/01/23 02:23:27;;;;;;;55.67;31.77;;;7.00;99.90;;;;;;7346962;19;112455;-78
2022/01/23 02:50:51;;;;;;;62.83;34.00;;;6.80;99.90;;;;;;7338328;19;112143;-78
2022/01/23 02:53:34;;;;;;;57.55;31.92;;;6.80;99.90;;;;;;7343176;19;113191;-77
2022/01/23 02:56:06;;;;;;;61.10;32.90;;;6.80;99.90;;;;;;7339161;19;111867;-77
2022/01/23 02:58:51;;;;;;;58.10;31.85;;;6.80;99.90;;;;;;7340571;19;112560;-78
2022/01/23 03:01:19;;;;;;;57.22;32.63;;;6.90;99.90;;;;;;7343320;19;114129;-77
2022/01/23 03:03:56;;;;;;;62.53;34.47;;;6.90;99.90;;;;;;7338447;19;111747;-78
2022/01/23 03:07:15;;;;;;;65.13;33.00;;;6.90;99.90;;;;;;7339375;19;112297;-77
2022/01/23 03:09:52;;;;;;;59.03;32.25;;;6.90;99.90;;;;;;7337585;19;112396;-78
2022/01/23 03:33:19;;;;;;;61.50;34.23;;;6.80;99.90;;;;;;7340656;19;111773;-78
2022/01/23 03:35:46;;;;;;;60.93;34.57;;;6.90;99.90;;;;;;7343870;19;112293;-78
2022/01/23 03:38:13;;;;;;;65.70;35.10;;;6.90;99.90;;;;;;7337054;19;114704;-78
2022/01/23 03:40:40;;;;;;;62.45;33.00;;;6.90;99.90;;;;;;7341379;19;112215;-78
2022/01/23 03:43:10;;;;;;;58.13;33.87;;;6.90;99.90;;;;;;7338544;19;113190;-78
2022/01/23 03:45:59;;;;;;;60.40;34.03;;;6.90;99.90;;;;;;7337149;19;114074;-78
2022/01/23 03:50:53;;;;;;;;;;;6.90;99.90;;;;;;7341409;19;113479;-77
2022/01/23 03:53:20;;;;;;;63.43;33.80;;;6.80;99.90;;;;;;7344214;19;112377;-78
2022/01/23 03:55:50;;;;;;;60.38;34.45;;;6.80;99.90;;;;;;7340010;19;110800;-77
2022/01/23 03:58:17;;;;;;;62.23;34.97;;;6.80;99.90;;;;;;7345646;19;113006;-77
2022/01/23 04:00:44;;;;;;;63.23;36.73;;;6.80;99.90;;;;;;7337461;19;111942;-78
2022/01/23 04:03:12;;;;;;;66.10;36.75;;;6.80;99.90;;;;;;7340853;19;112970;-77
2022/01/23 04:05:39;;;;;;;64.77;35.93;;;6.80;99.90;;;;;;7337795;19;114549;-77
2022/01/23 04:08:06;;;;;;;;;;;6.90;99.90;;;;;;7341346;19;110690;-77
2022/01/23 04:10:33;;;;;;;65.57;36.03;;;6.80;99.90;;;;;;7340512;19;109702;-78
2022/01/23 04:13:22;;;;;;;;;;;6.80;99.90;;;;;;7338452;19;110548;-78
2022/01/23 04:20:52;;;;;;;;;;;6.80;99.90;;;;;;7341902;19;110348;-78
2022/01/23 04:34:50;;;;;;;65.33;36.63;;;6.80;99.90;;;;;;7337976;19;110460;-77
2022/01/23 04:45:38;;;;;;;71.70;38.07;;;6.70;99.90;;;;;;7335723;19;112302;-78
2022/01/23 04:59:36;;;;;;;64.87;35.67;;;6.80;99.90;;;;;;7330611;19;113326;-78
2022/01/23 05:04:45;;;;;;;64.90;35.83;;;6.80;99.90;;;;;;7336165;19;111786;-77
2022/01/23 05:07:14;;;;;;;74.70;37.47;;;6.70;99.90;;;;;;7340881;19;112409;-78
2022/01/23 05:09:41;;;;;;;63.92;36.55;;;6.70;99.90;;;;;;7337769;19;111782;-78
2022/01/23 05:12:12;;;;;;;65.13;35.33;;;6.70;99.90;;;;;;7335682;19;111951;-78
2022/01/23 05:14:43;;;;;;;61.17;35.47;;;6.70;99.90;;;;;;7338075;19;112398;-78
2022/01/23 05:17:13;;;;;;;67.03;34.27;;;6.70;99.90;;;;;;7334956;19;112201;-78
2022/01/23 05:19:41;;;;;;;70.63;35.08;;;6.70;99.90;;;;;;7336931;19;112434;-78
2022/01/23 05:22:35;;;;;;;67.28;36.38;;;6.80;99.90;;;;;;7333923;19;112689;-78
2022/01/23 05:25:25;;;;;;;70.03;36.15;;;6.80;99.90;;;;;;7334304;19;110935;-78
2022/01/23 05:27:53;;;;;;;60.07;34.47;;;6.70;99.90;;;;;;7338330;19;111918;-78
2022/01/23 05:30:22;;;;;;;65.33;35.60;;;6.80;99.90;;;;;;7339284;19;112299;-77
2022/01/23 05:32:49;;;;;;;68.17;35.03;;;6.80;99.90;;;;;;7336784;19;111883;-78
2022/01/23 05:35:18;;;;;;;59.80;33.72;;;6.80;99.90;;;;;;7334358;19;113676;-78
2022/01/23 05:37:45;;;;;;;61.87;35.40;;;6.70;99.90;;;;;;7342753;19;112099;-78
2022/01/23 05:40:17;;;;;;;65.72;33.80;;;6.80;99.90;;;;;;7344669;19;110750;-78
2022/01/23 05:42:44;;;;;;;64.83;36.17;;;6.80;99.90;;;;;;7343008;19;111116;-78
2022/01/23 05:45:12;;;;;;;64.83;35.07;;;6.80;99.90;;;;;;7343417;19;111697;-79
2022/01/23 05:47:39;;;;;;;62.65;35.78;;;6.80;99.90;;;;;;7341949;19;112016;-78
2022/01/23 05:50:06;;;;;;;;;;;6.80;99.90;;;;;;7345429;19;113063;-78
2022/01/23 05:52:34;;;;;;;70.70;36.05;;;6.80;99.90;;;;;;7352759;19;112914;-78
2022/01/23 05:55:01;;;;;;;71.47;38.40;;;6.80;99.90;;;;;;7344523;19;112620;-80
2022/01/23 05:57:28;;;;;;;71.67;38.07;;;6.80;99.90;;;;;;7339014;19;111938;-78
2022/01/23 05:59:55;;;;;;;69.90;38.03;;;6.60;99.90;;;;;;7341838;19;113011;-77
2022/01/23 06:02:22;;;;;;;69.07;37.87;;;6.60;99.90;;;;;;7341968;19;112803;-78
2022/01/23 06:04:49;;;;;;;72.57;37.58;;;6.60;99.90;;;;;;7341674;19;111824;-79
2022/01/23 06:07:17;;;;;;;73.73;37.27;;;6.70;99.90;;;;;;7343231;19;112329;-78
2022/01/23 06:09:44;;;;;;;71.20;38.37;;;6.70;99.90;;;;;;7338845;19;112421;-78
2022/01/23 06:12:11;;;;;;;67.27;36.27;;;6.70;99.90;;;;;;7344254;19;111706;-79
2022/01/23 06:14:38;;;;;;;70.50;37.43;;;6.80;99.90;;;;;;7343813;19;112365;-79
2022/01/23 06:17:05;;;;;;;;;;;6.80;99.90;;;;;;7343243;19;111765;-79
2022/01/23 06:19:34;;;;;;;66.47;35.30;;;6.70;99.90;;;;;;7347537;19;112102;-78
2022/01/23 06:22:01;;;;;;;67.13;36.17;;;6.60;99.90;;;;;;7340793;19;112327;-78
2022/01/23 06:24:30;;;;;;;71.27;39.23;;;6.70;99.90;;;;;;7343520;19;112310;-78
2022/01/23 06:27:00;;;;;;;69.37;37.00;;;6.70;99.90;;;;;;7340329;19;111718;-79
2022/01/23 06:29:31;;;;;;;71.37;36.60;;;6.70;99.90;;;;;;7343043;19;112456;-79
2022/01/23 06:32:00;;;;;;;70.85;38.72;;;6.80;99.90;;;;;;7340890;19;113371;-79
2022/01/23 06:34:29;;;;;;;72.30;38.23;;;6.80;99.90;;;;;;7346922;19;113199;-78
2022/01/23 06:36:56;;;;;;;75.03;37.53;;;6.80;99.90;;;;;;7337268;19;111995;-79
2022/01/23 06:39:24;;;;;;;67.67;38.03;;;6.80;99.90;;;;;;7341430;19;113983;-79
2022/01/23 06:41:51;;;;;;;72.03;39.13;;;6.80;99.90;;;;;;7340178;19;113401;-79
2022/01/23 06:44:19;;;;;;;70.63;37.57;;;6.80;99.90;;;;;;7339978;19;112124;-77
2022/01/23 06:46:46;;;;;;;69.70;37.63;;;6.80;99.90;;;;;;7337813;19;110487;-78
2022/01/23 06:49:14;;;;;;;71.07;38.15;;;6.80;99.90;;;;;;7336455;19;113712;-79
2022/01/23 06:51:42;;;;;;;74.57;38.70;;;6.80;99.90;;;;;;7341710;19;111948;-79
2022/01/23 06:54:10;;;;;;;76.50;39.70;;;6.80;99.90;;;;;;7339033;19;111914;-79
2022/01/23 06:56:37;;;;;;;83.82;40.45;;;6.70;99.90;;;;;;7347187;19;112737;-78
2022/01/23 06:59:04;;;;;;;77.88;40.30;;;6.70;99.90;;;;;;7336481;19;112285;-78
2022/01/23 07:01:32;;;;;;;74.25;38.35;;;6.70;99.90;;;;;;7341723;19;111354;-78
2022/01/23 07:03:59;;;;;;;76.72;39.75;;;6.70;99.90;;;;;;7338615;19;111752;-78
2022/01/23 07:06:26;;;;;;;74.70;39.87;;;6.70;99.90;;;;;;7339523;19;115207;-79
2022/01/23 07:09:05;;;;;;;75.60;39.47;;;6.70;99.90;;;;;;7341007;19;114559;-78
2022/01/23 07:11:32;;;;;;;73.87;38.90;;;6.60;99.90;;;;;;7338400;19;111285;-79
2022/01/23 07:13:59;;;;;;;;;;;6.70;99.90;;;;;;7340178;19;112156;-79
2022/01/23 07:16:26;;;;;;;76.97;38.80;;;6.70;99.90;;;;;;7344626;19;111285;-79
2022/01/23 07:18:54;;;;;;;78.47;39.57;;;6.70;99.90;;;;;;7346853;19;111802;-78
2022/01/23 07:21:21;;;;;;;74.87;39.10;;;6.70;99.90;;;;;;7336638;19;111138;-79
2022/01/23 07:23:51;;;;;;;72.57;38.73;;;6.80;99.90;;;;;;7339816;19;110441;-78
2022/01/23 07:26:22;;;;;;;69.82;38.60;;;6.80;99.90;;;;;;7337740;19;112458;-78
2022/01/23 07:28:51;;;;;;;80.57;40.47;;;6.80;99.90;;;;;;7339630;19;112415;-79
2022/01/23 07:34:06;;;;;;;74.07;38.40;;;6.70;99.90;;;;;;7338776;19;113423;-78
2022/01/23 07:36:34;;;;;;;70.78;37.85;;;6.80;99.90;;;;;;7340172;19;111109;-79
2022/01/23 07:39:03;;;;;;;77.38;39.17;;;6.80;99.90;;;;;;7336965;19;112239;-78
2022/01/23 07:41:30;;;;;;;76.77;38.03;;;6.80;99.90;;;;;;7345787;19;112301;-79
2022/01/23 07:43:58;;;;;;;75.10;38.63;;;6.80;99.90;;;;;;7337519;19;112720;-78
2022/01/23 07:46:26;;;;;;;77.57;39.40;;;6.80;99.90;;;;;;7340276;19;114369;-79
2022/01/23 07:48:53;;;;;;;71.30;38.83;;;6.70;99.90;;;;;;7337927;19;113397;-79
2022/01/23 07:51:20;;;;;;;76.70;39.97;;;6.70;99.90;;;;;;7336793;19;112505;-79
2022/01/23 07:53:47;;;;;;;78.17;40.73;;;6.70;99.90;;;;;;7337407;19;112612;-79
2022/01/23 07:56:15;;;;;;;73.50;39.47;;;6.60;99.90;;;;;;7335059;19;112249;-78
2022/01/23 07:58:42;;;;;;;84.50;39.50;;;6.60;99.90;;;;;;7338007;19;113292;-78
2022/01/23 08:01:10;;;;;;;82.00;40.60;;;6.60;99.90;;;;;;7331882;19;111930;-78
2022/01/23 08:03:37;;;;;;;72.97;38.30;;;6.70;99.90;;;;;;7340954;19;112894;-78
2022/01/23 08:06:05;;;;;;;77.05;38.85;;;6.70;99.90;;;;;;7337281;19;110620;-78
2022/01/23 08:08:32;;;;;;;73.97;39.27;;;6.70;99.90;;;;;;7338192;19;112609;-78
2022/01/23 08:11:00;;;;;;;74.90;38.67;;;6.70;99.90;;;;;;7340896;19;112035;-79
2022/01/23 08:13:27;;;;;;;73.30;38.50;;;6.70;99.90;;;;;;7337982;19;112382;-78
2022/01/23 08:15:54;;;;;;;73.97;39.15;;;6.80;99.90;;;;;;7339179;19;112632;-78
2022/01/23 08:18:21;;;;;;;74.17;39.40;;;6.80;99.90;;;;;;7337879;19;111867;-78
2022/01/23 08:20:48;;;;;;;80.03;39.50;;;6.80;99.90;;;;;;7337896;19;111116;-78
2022/01/23 08:23:21;;;;;;;74.53;38.85;;;6.80;99.90;;;;;;7340472;19;112915;-79
2022/01/23 08:25:50;;;;;;;80.93;39.20;;;6.70;99.90;;;;;;7339150;19;112940;-78
2022/01/23 08:28:17;;;;;;;77.40;39.00;;;6.70;99.90;;;;;;7336314;19;113921;-79
2022/01/23 08:30:44;;;;;;;71.03;39.13;;;6.80;99.90;;;;;;7336056;19;110859;-78
2022/01/23 08:33:11;;;;;;;74.63;39.45;;;6.80;99.90;;;;;;7337440;19;110815;-79
2022/01/23 08:35:40;;;;;;;76.70;39.07;;;6.80;99.90;;;;;;7337061;19;112790;-78
2022/01/23 08:38:08;;;;;;;74.73;38.90;;;6.80;99.90;;;;;;7339586;19;112696;-79
2022/01/23 08:43:09;;;;;;;75.83;39.73;;;6.80;99.90;;;;;;7338876;19;114606;-80
2022/01/23 08:45:37;;;;;;;84.90;40.00;;;6.80;99.90;;;;;;7334043;19;112551;-79
2022/01/23 08:48:05;;;;;;;82.90;41.15;;;6.80;99.90;;;;;;7327761;19;112635;-79
2022/01/23 08:50:32;;;;;;;76.23;40.50;;;6.90;99.90;;;;;;7326597;19;112088;-79
2022/01/23 08:52:59;;;;;;;76.97;40.00;;;6.80;99.90;;;;;;7330406;19;112404;-78
2022/01/23 08:55:26;;;;;;;76.83;39.70;;;6.90;99.90;;;;;;7326442;19;111131;-79
2022/01/23 08:57:53;;;;;;;75.23;39.97;;;6.90;99.90;;;;;;7329703;19;112021;-78
2022/01/23 09:00:30;;;;;;;78.65;39.25;;;6.90;99.90;;;;;;7329243;19;113415;-79
2022/01/23 09:02:58;;;;;;;73.70;38.90;;;6.80;99.90;;;;;;7320230;19;112611;-79
2022/01/23 09:05:26;;;;;;;80.57;41.40;;;6.80;99.90;;;;;;7328507;19;112378;-78
2022/01/23 09:07:54;;;;;;;75.22;39.40;;;6.80;99.90;;;;;;7330232;19;112630;-79
2022/01/23 09:10:26;;;;;;;81.75;40.38;;;6.90;99.90;;;;;;7330526;19;112389;-78
2022/01/23 09:13:30;;;;;;;84.63;40.23;;;6.90;99.90;;;;;;7334641;19;113473;-78
2022/01/23 09:15:42;;;;;;;76.53;38.85;;;6.80;99.90;;;;;;7337199;19;112165;-79
2022/01/23 09:18:09;;;;;;;74.68;40.33;;;6.80;99.90;;;;;;7333610;19;112081;-78
2022/01/23 09:20:36;;;;;;;;;;;6.90;99.90;;;;;;7334805;19;110776;-78
2022/01/23 09:23:03;;;;;;;72.53;38.13;;;6.80;99.90;;;;;;7338979;19;110935;-78
2022/01/23 09:25:30;;;;;;;80.10;40.13;;;6.90;99.90;;;;;;7334617;19;111379;-79
2022/01/23 09:28:00;;;;;;;;;;;6.90;99.90;;;;;;7334916;19;112237;-79
2022/01/23 09:30:34;;;;;;;77.63;38.43;;;6.90;99.90;;;;;;7344205;19;109814;-78
2022/01/23 09:33:03;;;;;;;81.28;40.42;;;7.00;99.90;;;;;;7338475;19;111010;-79
2022/01/23 09:35:30;;;;;;;81.65;38.85;;;7.00;99.90;;;;;;7332771;19;112670;-79
2022/01/23 09:37:57;;;;;;;72.95;38.97;;;7.00;99.90;;;;;;7337148;19;110566;-79
2022/01/23 09:40:24;;;;;;;74.77;40.47;;;7.00;99.90;;;;;;7331163;19;112004;-79
2022/01/23 09:42:58;;;;;;;82.50;40.67;;;7.00;99.90;;;;;;7332783;19;112161;-78
2022/01/23 09:45:26;;;;;;;71.95;39.67;;;7.00;99.90;;;;;;7329260;19;112163;-78
2022/01/23 09:47:57;;;;;;;80.13;40.78;;;7.00;99.90;;;;;;7332821;19;112377;-78
2022/01/23 09:50:24;;;;;;;87.00;41.05;;;7.00;99.90;;;;;;7331339;19;113680;-79
2022/01/23 09:52:54;;;;;;;79.25;38.58;;;7.00;99.90;;;;;;7336539;19;111766;-78
2022/01/23 09:55:25;;;;;;;73.57;38.53;;;7.00;99.90;;;;;;7334460;19;113074;-79
2022/01/23 09:57:54;;;;;;;74.95;39.47;;;7.00;99.90;;;;;;7333693;19;112120;-80
2022/01/23 10:00:25;;;;;;;77.85;40.65;;;7.00;99.90;;;;;;7335421;19;111903;-78
2022/01/23 10:02:52;;;;;;;79.18;39.25;;;7.00;99.90;;;;;;7332220;19;112554;-78
2022/01/23 10:05:20;;;;;;;78.25;38.95;;;7.00;99.90;;;;;;7334236;19;112354;-78
2022/01/23 10:07:48;;;;;;;75.68;38.47;;;7.00;99.90;;;;;;7329841;19;112289;-79
2022/01/23 10:10:21;;;;;;;74.43;38.95;;;7.10;99.90;;;;;;7334264;19;111019;-79
2022/01/23 10:12:55;;;;;;;81.47;39.92;;;7.10;99.90;;;;;;7329990;19;112135;-77
2022/01/23 10:15:26;;;;;;;78.05;40.17;;;7.10;99.90;;;;;;7340472;19;112349;-79
2022/01/23 10:17:54;;;;;;;77.18;39.05;;;7.20;99.90;;;;;;7336287;19;116406;-79
2022/01/23 10:20:22;;;;;;;76.82;39.90;;;7.20;99.90;;;;;;7330711;19;112366;-79
2022/01/23 10:22:51;;;;;;;73.88;38.80;;;7.20;99.90;;;;;;7331989;19;112746;-77
2022/01/23 10:25:24;;;;;;;78.95;40.33;;;7.20;99.90;;;;;;7330909;19;112615;-78
2022/01/23 10:28:05;;;;;;;75.97;40.63;;;7.20;99.90;;;;;;7330615;19;112119;-78
2022/01/23 10:30:37;;;;;;;77.90;40.05;;;7.20;99.90;;;;;;7331734;19;112354;-78
2022/01/23 10:33:10;;;;;;;83.57;40.03;;;7.30;99.90;;;;;;7333167;19;116141;-77
2022/01/23 10:36:15;;;;;;;75.78;39.72;;;7.30;99.90;;;;;;7337523;19;112221;-79
2022/01/23 10:39:04;;;;;;;76.55;38.83;;;7.30;99.90;;;;;;7329227;19;112760;-77
2022/01/23 10:50:00;;;;;;;82.85;39.65;;;7.30;99.90;;;;;;7332438;19;110686;-78
2022/01/23 10:52:37;;;;;;;76.57;40.05;;;7.30;99.90;;;;;;7330023;19;112809;-80
2022/01/23 10:55:11;;;;;;;77.20;39.38;;;7.30;99.90;;;;;;7333147;19;112400;-79
2022/01/23 10:57:47;;;;;;;76.50;40.78;;;7.30;99.90;;;;;;7327670;19;110568;-77
2022/01/23 11:00:32;;;;;;;79.65;39.45;;;7.30;99.90;;;;;;7337718;19;113717;-78
2022/01/23 11:03:13;;;;;;;78.93;39.05;;;7.30;99.90;;;;;;7334138;19;112499;-78
2022/01/23 11:05:40;;;;;;;70.22;38.40;;;7.30;99.90;;;;;;7328936;19;114623;-79
2022/01/23 11:08:27;;;;;;;73.05;36.65;;;7.30;99.90;;;;;;7331662;19;112549;-78
2022/01/23 11:10:56;;;;;;;72.90;38.55;;;7.40;99.90;;;;;;7333559;19;111287;-79
2022/01/23 11:19:39;;;;;;;72.35;37.28;;;7.40;99.90;;;;;;7333343;19;111899;-79
2022/01/23 11:22:14;;;;;;;73.00;36.85;;;7.40;99.90;;;;;;7323338;19;112365;-80
2022/01/23 11:24:44;;;;;;;78.85;38.30;;;7.40;99.90;;;;;;7338242;19;115956;-79
2022/01/23 11:27:12;;;;;;;71.18;36.22;;;7.40;99.90;;;;;;7325506;19;112905;-79
2022/01/23 11:29:57;;;;;;;69.47;37.42;;;7.40;99.90;;;;;;7334664;19;111833;-79
2022/01/23 11:32:29;;;;;;;65.53;35.80;;;7.50;99.90;;;;;;7330341;19;112093;-78
2022/01/23 11:35:04;;;;;;;74.85;38.33;;;7.50;99.90;;;;;;7329810;19;114273;-80
2022/01/23 11:37:32;;;;;;;69.25;36.65;;;7.50;99.90;;;;;;7331849;19;111805;-78
2022/01/23 11:40:26;;;;;;;71.47;37.55;;;7.50;99.90;;;;;;7330967;19;110789;-79
2022/01/23 11:53:56;;;;;;;74.45;38.13;;;7.50;99.90;;;;;;7326039;19;112204;-78
2022/01/23 11:56:26;;;;;;;76.10;37.97;;;7.50;99.90;;;;;;7331582;19;112733;-78
2022/01/23 11:59:35;;;;;;;73.05;38.30;;;7.60;99.90;;;;;;7328422;19;110405;-79
2022/01/23 12:02:28;;;;;;;71.10;38.30;;;7.50;99.90;;;;;;7324669;19;115100;-79
2022/01/23 12:05:25;;;;;;;71.30;38.38;;;7.60;99.90;;;;;;7324617;19;114311;-79
2022/01/23 12:08:13;;;;;;;75.82;39.38;;;7.60;99.90;;;;;;7322464;19;111809;-79
2022/01/23 12:10:54;;;;;;;76.45;39.70;;;7.60;99.90;;;;;;7328794;19;112321;-79
2022/01/23 12:16:22;;;;;;;71.70;37.20;;;7.70;99.90;;;;;;7331250;19;113004;-78
2022/01/23 12:16:26;;;;;;;73.28;38.25;;;7.70;99.90;;;;;;7326784;19;112244;-78
2022/01/23 12:19:18;;;;;;;72.40;37.72;;;7.70;99.90;;;;;;7331545;19;112715;-80
2022/01/23 12:21:46;;;;;;;72.53;38.47;;;7.70;99.90;;;;;;7327902;19;112199;-77
2022/01/23 12:24:15;;;;;;;80.30;41.63;;;7.80;99.90;;;;;;7329136;19;112267;-79
2022/01/23 12:26:43;;;;;;;82.63;40.58;;;7.70;99.90;;;;;;7327802;19;112670;-78
2022/01/23 12:29:23;;;;;;;76.65;40.40;;;7.80;99.90;;;;;;7328110;19;112435;-78
2022/01/23 12:32:28;;;;;;;75.22;40.38;;;7.80;99.90;;;;;;7326205;19;112594;-79
2022/01/23 12:35:03;;;;;;;73.68;40.08;;;7.80;99.90;;;;;;7328010;19;111287;-79
2022/01/23 12:38:02;;;;;;;76.88;40.13;;;7.80;99.90;;;;;;7336058;19;112816;-79
2022/01/23 12:40:41;;;;;;;78.32;40.40;;;7.90;99.90;;;;;;7327080;19;112855;-79
2022/01/23 12:43:25;;;;;;;79.03;41.13;;;7.90;99.90;;;;;;7331298;19;111710;-79
2022/01/23 12:45:58;;;;;;;81.47;40.03;;;7.90;99.90;;;;;;7323613;19;112588;-79
2022/01/23 12:48:25;;;;;;;74.35;39.22;;;7.90;99.90;;;;;;7328697;19;112065;-78
2022/01/23 12:50:57;;;;;;;;;;;7.90;99.90;;;;;;7329384;19;111095;-79
2022/01/23 12:53:50;;;;;;;76.03;39.78;;;7.90;99.90;;;;;;7335014;19;112172;-79
2022/01/23 12:56:22;;;;;;;79.15;40.42;;;7.90;99.90;;;;;;7328350;19;112701;-79
2022/01/23 12:59:10;;;;;;;80.40;40.88;;;7.90;99.90;;;;;;7332198;19;112201;-78
2022/01/23 13:01:41;;;;;;;;;;;7.90;99.90;;;;;;7328581;19;114320;-79
2022/01/23 13:04:08;;;;;;;76.95;40.97;;;7.90;99.90;;;;;;7331950;19;112045;-79
2022/01/23 13:06:40;;;;;;;80.05;41.35;;;7.90;99.90;;;;;;7331986;19;111119;-78
2022/01/23 13:32:15;;;;;;;75.88;41.15;;;8.20;99.90;;;;;;7326783;19;112343;-79
2022/01/23 13:35:00;;;;;;;79.75;41.83;;;8.20;99.90;;;;;;7328044;19;115382;-78
2022/01/23 13:37:30;;;;;;;77.03;40.58;;;8.20;99.90;;;;;;7328628;19;112036;-79
2022/01/23 13:40:03;;;;;;;74.00;40.28;;;8.20;99.90;;;;;;7324563;19;112786;-79
2022/01/23 13:59:33;;;;;;;;;;;8.30;99.90;;;;;;7333786;19;111516;-79
2022/01/23 14:02:14;;;;;;;72.97;39.25;;;8.30;99.90;;;;;;7343399;19;113771;-79
2022/01/23 14:04:50;;;;;;;76.32;41.45;;;8.30;99.90;;;;;;7333105;19;112105;-80
2022/01/23 14:07:26;;;;;;;76.75;41.42;;;8.30;99.90;;;;;;7334503;19;112505;-80
2022/01/23 14:09:59;;;;;;;73.35;38.83;;;8.40;99.90;;;;;;7332096;19;112749;-78
2022/01/23 14:12:31;;;;;;;78.13;40.72;;;8.40;99.90;;;;;;7336687;19;111901;-79
2022/01/23 14:15:25;;;;;;;70.95;39.00;;;8.40;99.90;;;;;;7334910;19;112757;-79
2022/01/23 14:18:02;;;;;;;72.18;39.75;;;8.30;99.90;;;;;;7330344;19;112362;-78
2022/01/23 14:20:32;;;;;;;67.00;37.10;;;8.40;99.90;;;;;;7334417;19;112108;-78
2022/01/23 14:23:12;;;;;;;76.25;39.97;;;8.30;99.90;;;;;;7329473;19;112314;-79
2022/01/23 14:25:47;;;;;;;70.30;37.70;;;8.40;99.90;;;;;;7333864;19;110458;-78
2022/01/23 14:28:20;;;;;;;70.95;36.50;;;8.40;99.90;;;;;;7331659;19;111978;-79
2022/01/23 14:30:56;;;;;;;66.65;37.58;;;8.40;99.90;;;;;;7331986;19;112725;-79
2022/01/23 14:33:27;;;;;;;67.32;36.63;;;8.40;99.90;;;;;;7334674;19;112119;-79
2022/01/23 14:36:26;;;;;;;64.95;36.58;;;8.40;99.90;;;;;;7336093;19;114027;-79
2022/01/23 14:38:57;;;;;;;59.25;35.40;;;8.30;99.90;;;;;;7335478;19;112396;-78
2022/01/23 14:41:27;;;;;;;65.35;36.38;;;8.40;99.90;;;;;;7331169;19;112489;-80
2022/01/23 14:43:54;;;;;;;64.68;35.25;;;8.40;99.90;;;;;;7333068;19;112319;-79
2022/01/23 14:46:22;;;;;;;60.60;35.20;;;8.40;99.90;;;;;;7328907;19;111860;-78
2022/01/23 14:48:50;;;;;;;68.45;38.17;;;8.40;99.90;;;;;;7332872;19;110502;-78
2022/01/23 14:51:23;;;;;;;69.30;37.88;;;8.40;99.90;;;;;;7331531;19;112698;-77
2022/01/23 14:53:52;;;;;;;63.30;34.67;;;8.30;99.90;;;;;;7332629;19;113639;-77
2022/01/23 14:56:20;;;;;;;59.35;35.15;;;8.40;99.90;;;;;;7333678;19;112543;-77
2022/01/23 14:58:48;;;;;;;67.70;37.42;;;8.30;99.90;;;;;;7337300;19;113117;-78
2022/01/23 15:01:17;;;;;;;64.90;36.72;;;8.30;99.90;;;;;;7332420;19;112295;-78
2022/01/23 15:03:53;;;;;;;70.03;37.38;;;8.20;99.90;;;;;;7328347;19;112698;-78
2022/01/23 15:06:29;;;;;;;66.07;37.17;;;8.20;99.90;;;;;;7334758;19;112560;-78
2022/01/23 15:09:06;;;;;;;68.43;37.97;;;8.20;99.90;;;;;;7329810;19;112014;-78
2022/01/23 15:11:34;;;;;;;66.10;37.63;;;8.30;99.90;;;;;;7332493;19;115452;-78
2022/01/23 15:14:03;;;;;;;64.47;35.95;;;8.20;99.90;;;;;;7334904;19;110827;-78
2022/01/23 15:16:30;;;;;;;62.88;35.67;;;8.20;99.90;;;;;;7331129;19;115228;-78
2022/01/23 15:18:58;;;;;;;63.08;35.35;;;8.20;99.90;;;;;;7338965;19;112734;-78
2022/01/23 15:21:25;;;;;;;64.47;35.20;;;8.20;99.90;;;;;;7328999;19;112241;-78
2022/01/23 15:23:55;;;;;;;63.70;34.17;;;8.20;99.90;;;;;;7331850;19;112172;-77
2022/01/23 15:26:27;;;;;;;56.15;33.03;;;8.20;99.90;;;;;;7329749;19;111753;-78
2022/01/23 15:28:55;;;;;;;59.20;34.17;;;8.20;99.90;;;;;;7332110;19;112264;-78
2022/01/23 15:31:23;;;;;;;61.22;35.00;;;8.20;99.90;;;;;;7328219;19;112925;-77
2022/01/23 15:33:51;;;;;;;66.60;34.15;;;8.20;99.90;;;;;;7330833;19;112147;-77
2022/01/23 15:36:19;;;;;;;67.15;34.53;;;8.20;99.90;;;;;;7329398;19;111988;-77
2022/01/23 15:38:46;;;;;;;60.33;33.30;;;8.20;99.90;;;;;;7324086;19;112793;-78
2022/01/23 15:41:13;;;;;;;58.70;32.58;;;8.20;99.90;;;;;;7333715;19;113158;-78
2022/01/23 15:43:40;;;;;;;55.38;32.00;;;8.20;99.90;;;;;;7330276;19;112300;-78
2022/01/23 15:46:07;;;;;;;55.00;32.13;;;8.10;99.90;;;;;;7332539;19;111478;-77
2022/01/23 15:48:35;;;;;;;53.10;28.75;;;8.10;99.90;;;;;;7329701;19;112392;-79
2022/01/23 15:51:03;;;;;;;48.17;26.75;;;8.10;99.90;;;;;;7330333;19;113848;-78
2022/01/23 15:53:30;;;;;;;49.03;28.90;;;8.10;99.90;;;;;;7329864;19;112040;-77
2022/01/23 15:55:58;;;;;;;47.42;27.95;;;8.10;99.90;;;;;;7332191;19;112245;-77
2022/01/23 15:58:27;;;;;;;51.17;27.92;;;8.10;99.90;;;;;;7327094;19;112876;-77
2022/01/23 16:00:55;;;;;;;51.13;27.67;;;8.00;99.90;;;;;;7332941;19;111235;-78
2022/01/23 16:03:24;;;;;;;45.95;27.50;;;8.00;99.90;;;;;;7336759;19;112825;-78
2022/01/23 16:05:51;;;;;;;50.60;29.98;;;8.00;99.90;;;;;;7332507;19;112217;-77
2022/01/23 16:08:18;;;;;;;54.22;29.80;;;8.00;99.90;;;;;;7328251;19;112480;-77
2022/01/23 16:10:46;;;;;;;54.63;30.80;;;8.00;99.90;;;;;;7327970;19;113078;-77
2022/01/23 16:13:13;;;;;;;55.45;29.55;;;8.00;99.90;;;;;;7329844;19;111952;-78
2022/01/23 16:15:43;;;;;;;53.95;29.35;;;7.90;99.90;;;;;;7329358;19;112629;-78
2022/01/23 16:18:10;;;;;;;52.03;29.75;;;7.90;99.90;;;;;;7329974;19;112730;-78